sensor_id;sensor_type;location;lat;lon;timestamp;P1;durP1;ratioP1;P2;durP2;ratioP2
3949;SDS011;53057;50.988;6.314;2023-04-01T00:02:03;1.90;;;1.00;;
3949;SDS011;53057;50.988;6.314;2023-04-01T00:04:30;3.10;;;1.00;;
3949;SDS011;53057;50.988;6.314;2023-04-01T00:06:56;3.00;;;0.80;;
3949;SDS011;53057;50.988;6.314;2023-04-01T00:09:23;3.57;;;0.80;;
3949;SDS011;53057;50.988;6.314;2023-04-01T00:11:55;3.03;;;1.03;;
3949;SDS011;53057;50.988;6.314;2023-04-01T00:14:21;4.97;;;1.20;;
3949;SDS011;53057;50.988;6.314;2023-04-01T00:16:48;5.10;;;1.27;;
3949;SDS011;53057;50.988;6.314;2023-04-01T00:19:14;2.03;;;1.13;;
3949;SDS011;53057;50.988;6.314;2023-04-01T00:21:42;1.30;;;0.70;;
3949;SDS011;53057;50.988;6.314;2023-04-01T00:24:09;1.63;;;0.90;;
3949;SDS011;53057;50.988;6.314;2023-04-01T00:26:35;3.70;;;1.10;;
3949;SDS011;53057;50.988;6.314;2023-04-01T00:29:02;4.07;;;1.13;;
3949;SDS011;53057;50.988;6.314;2023-04-01T00:31:29;1.20;;;1.10;;
3949;SDS011;53057;50.988;6.314;2023-04-01T00:33:56;1.90;;;0.80;;
3949;SDS011;53057;50.988;6.314;2023-04-01T00:36:23;1.67;;;0.80;;
3949;SDS011;53057;50.988;6.314;2023-04-01T00:38:52;2.50;;;0.90;;
3949;SDS011;53057;50.988;6.314;2023-04-01T00:41:19;0.80;;;0.70;;
3949;SDS011;53057;50.988;6.314;2023-04-01T00:43:49;7.50;;;1.20;;
3949;SDS011;53057;50.988;6.314;2023-04-01T00:46:16;1.73;;;0.73;;
3949;SDS011;53057;50.988;6.314;2023-04-01T00:48:47;1.90;;;0.87;;
3949;SDS011;53057;50.988;6.314;2023-04-01T00:51:19;4.77;;;1.30;;
3949;SDS011;53057;50.988;6.314;2023-04-01T00:53:48;1.37;;;0.80;;
3949;SDS011;53057;50.988;6.314;2023-04-01T00:56:34;9.10;;;0.80;;
3949;SDS011;53057;50.988;6.314;2023-04-01T00:59:07;1.57;;;0.97;;
3949;SDS011;53057;50.988;6.314;2023-04-01T01:01:35;7.50;;;0.80;;
3949;SDS011;53057;50.988;6.314;2023-04-01T01:04:02;7.27;;;1.10;;
3949;SDS011;53057;50.988;6.314;2023-04-01T01:09:21;2.97;;;0.90;;
3949;SDS011;53057;50.988;6.314;2023-04-01T01:11:43;6.10;;;1.10;;
3949;SDS011;53057;50.988;6.314;2023-04-01T01:14:35;4.93;;;0.83;;
3949;SDS011;53057;50.988;6.314;2023-04-01T01:17:02;4.00;;;1.20;;
3949;SDS011;53057;50.988;6.314;2023-04-01T01:19:33;0.83;;;0.73;;
3949;SDS011;53057;50.988;6.314;2023-04-01T01:24:54;1.20;;;0.80;;
3949;SDS011;53057;50.988;6.314;2023-04-01T01:27:23;2.90;;;1.17;;
3949;SDS011;53057;50.988;6.314;2023-04-01T01:29:54;1.10;;;0.80;;
3949;SDS011;53057;50.988;6.314;2023-04-01T01:32:30;5.53;;;1.40;;
3949;SDS011;53057;50.988;6.314;2023-04-01T01:37:49;3.70;;;0.70;;
3949;SDS011;53057;50.988;6.314;2023-04-01T01:40:17;0.90;;;0.90;;
3949;SDS011;53057;50.988;6.314;2023-04-01T01:42:46;2.53;;;1.17;;
3949;SDS011;53057;50.988;6.314;2023-04-01T01:45:14;1.63;;;0.70;;
3949;SDS011;53057;50.988;6.314;2023-04-01T01:47:45;5.57;;;0.80;;
3949;SDS011;53057;50.988;6.314;2023-04-01T01:50:12;3.83;;;0.90;;
3949;SDS011;53057;50.988;6.314;2023-04-01T01:52:40;2.53;;;0.90;;
3949;SDS011;53057;50.988;6.314;2023-04-01T01:55:24;2.03;;;0.80;;
3949;SDS011;53057;50.988;6.314;2023-04-01T01:57:52;1.73;;;1.30;;
3949;SDS011;53057;50.988;6.314;2023-04-01T02:00:21;1.10;;;0.70;;
3949;SDS011;53057;50.988;6.314;2023-04-01T02:02:48;3.50;;;0.90;;
3949;SDS011;53057;50.988;6.314;2023-04-01T02:05:20;0.80;;;0.80;;
3949;SDS011;53057;50.988;6.314;2023-04-01T02:07:49;1.73;;;0.90;;
3949;SDS011;53057;50.988;6.314;2023-04-01T02:10:18;2.00;;;0.80;;
3949;SDS011;53057;50.988;6.314;2023-04-01T02:12:46;0.90;;;0.60;;
3949;SDS011;53057;50.988;6.314;2023-04-01T02:15:14;16.37;;;1.73;;
3949;SDS011;53057;50.988;6.314;2023-04-01T02:17:45;2.17;;;0.80;;
3949;SDS011;53057;50.988;6.314;2023-04-01T02:20:14;2.60;;;1.00;;
3949;SDS011;53057;50.988;6.314;2023-04-01T02:22:43;3.33;;;0.60;;
3949;SDS011;53057;50.988;6.314;2023-04-01T02:25:13;2.70;;;1.20;;
3949;SDS011;53057;50.988;6.314;2023-04-01T02:27:41;1.40;;;0.70;;
3949;SDS011;53057;50.988;6.314;2023-04-01T02:30:08;0.70;;;0.70;;
3949;SDS011;53057;50.988;6.314;2023-04-01T02:32:35;1.00;;;0.60;;
3949;SDS011;53057;50.988;6.314;2023-04-01T02:35:05;0.50;;;0.50;;
3949;SDS011;53057;50.988;6.314;2023-04-01T02:37:32;2.03;;;0.60;;
3949;SDS011;53057;50.988;6.314;2023-04-01T02:40:02;0.97;;;0.60;;
3949;SDS011;53057;50.988;6.314;2023-04-01T02:42:29;0.70;;;0.60;;
3949;SDS011;53057;50.988;6.314;2023-04-01T02:44:55;0.70;;;0.60;;
3949;SDS011;53057;50.988;6.314;2023-04-01T02:47:22;2.03;;;0.60;;
3949;SDS011;53057;50.988;6.314;2023-04-01T02:49:48;0.80;;;0.60;;
3949;SDS011;53057;50.988;6.314;2023-04-01T02:52:15;1.53;;;0.60;;
3949;SDS011;53057;50.988;6.314;2023-04-01T02:54:41;1.10;;;0.70;;
3949;SDS011;53057;50.988;6.314;2023-04-01T02:57:08;7.33;;;1.00;;
3949;SDS011;53057;50.988;6.314;2023-04-01T02:59:34;2.03;;;0.60;;
3949;SDS011;53057;50.988;6.314;2023-04-01T03:02:01;0.60;;;0.60;;
3949;SDS011;53057;50.988;6.314;2023-04-01T03:04:28;8.10;;;0.70;;
3949;SDS011;53057;50.988;6.314;2023-04-01T03:06:54;1.37;;;0.80;;
3949;SDS011;53057;50.988;6.314;2023-04-01T03:09:21;0.80;;;0.73;;
3949;SDS011;53057;50.988;6.314;2023-04-01T03:11:48;5.80;;;1.10;;
3949;SDS011;53057;50.988;6.314;2023-04-01T03:14:14;1.47;;;0.70;;
3949;SDS011;53057;50.988;6.314;2023-04-01T03:16:41;2.90;;;1.00;;
3949;SDS011;53057;50.988;6.314;2023-04-01T03:19:08;0.90;;;0.80;;
3949;SDS011;53057;50.988;6.314;2023-04-01T03:21:35;1.00;;;0.60;;
3949;SDS011;53057;50.988;6.314;2023-04-01T03:24:01;0.77;;;0.60;;
3949;SDS011;53057;50.988;6.314;2023-04-01T03:26:28;1.23;;;1.07;;
3949;SDS011;53057;50.988;6.314;2023-04-01T03:28:55;1.27;;;0.80;;
3949;SDS011;53057;50.988;6.314;2023-04-01T03:31:22;4.37;;;0.90;;
3949;SDS011;53057;50.988;6.314;2023-04-01T03:33:53;0.73;;;0.70;;
3949;SDS011;53057;50.988;6.314;2023-04-01T03:36:19;1.43;;;0.87;;
3949;SDS011;53057;50.988;6.314;2023-04-01T03:38:46;6.00;;;0.90;;
3949;SDS011;53057;50.988;6.314;2023-04-01T03:41:18;2.03;;;0.80;;
3949;SDS011;53057;50.988;6.314;2023-04-01T03:43:45;4.30;;;1.13;;
3949;SDS011;53057;50.988;6.314;2023-04-01T03:46:16;1.30;;;1.10;;
3949;SDS011;53057;50.988;6.314;2023-04-01T03:48:43;3.20;;;1.63;;
3949;SDS011;53057;50.988;6.314;2023-04-01T03:51:09;1.00;;;0.90;;
3949;SDS011;53057;50.988;6.314;2023-04-01T03:53:36;2.63;;;1.37;;
3949;SDS011;53057;50.988;6.314;2023-04-01T03:56:05;1.27;;;1.00;;
3949;SDS011;53057;50.988;6.314;2023-04-01T03:58:34;1.13;;;0.80;;
3949;SDS011;53057;50.988;6.314;2023-04-01T04:01:01;1.30;;;1.17;;
3949;SDS011;53057;50.988;6.314;2023-04-01T04:03:29;1.20;;;1.10;;
3949;SDS011;53057;50.988;6.314;2023-04-01T04:05:57;1.77;;;1.37;;
3949;SDS011;53057;50.988;6.314;2023-04-01T04:08:24;9.33;;;1.60;;
3949;SDS011;53057;50.988;6.314;2023-04-01T04:10:56;2.27;;;1.20;;
3949;SDS011;53057;50.988;6.314;2023-04-01T04:13:23;2.80;;;1.40;;
3949;SDS011;53057;50.988;6.314;2023-04-01T04:15:58;1.60;;;1.50;;
3949;SDS011;53057;50.988;6.314;2023-04-01T04:18:24;4.93;;;1.97;;
3949;SDS011;53057;50.988;6.314;2023-04-01T04:20:51;3.07;;;1.70;;
3949;SDS011;53057;50.988;6.314;2023-04-01T04:23:18;0.87;;;0.87;;
3949;SDS011;53057;50.988;6.314;2023-04-01T04:26:02;1.67;;;1.57;;
3949;SDS011;53057;50.988;6.314;2023-04-01T04:28:29;2.53;;;1.27;;
3949;SDS011;53057;50.988;6.314;2023-04-01T04:30:57;1.30;;;1.20;;
3949;SDS011;53057;50.988;6.314;2023-04-01T04:33:24;3.83;;;1.23;;
3949;SDS011;53057;50.988;6.314;2023-04-01T04:35:54;1.87;;;0.90;;
3949;SDS011;53057;50.988;6.314;2023-04-01T04:38:21;1.73;;;1.63;;
3949;SDS011;53057;50.988;6.314;2023-04-01T04:40:48;1.17;;;1.17;;
3949;SDS011;53057;50.988;6.314;2023-04-01T04:43:16;2.60;;;1.50;;
3949;SDS011;53057;50.988;6.314;2023-04-01T04:45:42;6.93;;;1.87;;
3949;SDS011;53057;50.988;6.314;2023-04-01T04:48:10;1.33;;;1.23;;
3949;SDS011;53057;50.988;6.314;2023-04-01T04:50:39;2.23;;;1.03;;
3949;SDS011;53057;50.988;6.314;2023-04-01T04:53:09;1.17;;;1.00;;
3949;SDS011;53057;50.988;6.314;2023-04-01T04:55:35;2.33;;;1.17;;
3949;SDS011;53057;50.988;6.314;2023-04-01T04:58:28;1.97;;;1.10;;
3949;SDS011;53057;50.988;6.314;2023-04-01T05:00:55;1.73;;;1.30;;
3949;SDS011;53057;50.988;6.314;2023-04-01T05:03:27;6.73;;;0.90;;
3949;SDS011;53057;50.988;6.314;2023-04-01T05:05:54;2.93;;;1.40;;
3949;SDS011;53057;50.988;6.314;2023-04-01T05:08:20;2.40;;;1.60;;
3949;SDS011;53057;50.988;6.314;2023-04-01T05:10:47;1.00;;;1.00;;
3949;SDS011;53057;50.988;6.314;2023-04-01T05:13:13;1.30;;;1.20;;
3949;SDS011;53057;50.988;6.314;2023-04-01T05:15:41;1.57;;;1.10;;
3949;SDS011;53057;50.988;6.314;2023-04-01T05:18:08;4.83;;;1.63;;
3949;SDS011;53057;50.988;6.314;2023-04-01T05:20:35;3.67;;;1.20;;
3949;SDS011;53057;50.988;6.314;2023-04-01T05:23:02;3.90;;;1.40;;
3949;SDS011;53057;50.988;6.314;2023-04-01T05:25:28;4.70;;;1.70;;
3949;SDS011;53057;50.988;6.314;2023-04-01T05:27:55;5.97;;;1.40;;
3949;SDS011;53057;50.988;6.314;2023-04-01T05:30:22;1.20;;;1.10;;
3949;SDS011;53057;50.988;6.314;2023-04-01T05:33:15;0.90;;;0.90;;
3949;SDS011;53057;50.988;6.314;2023-04-01T05:35:41;6.53;;;2.00;;
3949;SDS011;53057;50.988;6.314;2023-04-01T05:38:08;2.33;;;1.70;;
3949;SDS011;53057;50.988;6.314;2023-04-01T05:40:35;1.60;;;1.50;;
3949;SDS011;53057;50.988;6.314;2023-04-01T05:43:02;1.83;;;1.73;;
3949;SDS011;53057;50.988;6.314;2023-04-01T05:45:28;1.30;;;1.20;;
3949;SDS011;53057;50.988;6.314;2023-04-01T05:48:18;6.10;;;1.40;;
3949;SDS011;53057;50.988;6.314;2023-04-01T05:50:44;1.63;;;1.47;;
3949;SDS011;53057;50.988;6.314;2023-04-01T05:53:11;2.43;;;1.40;;
3949;SDS011;53057;50.988;6.314;2023-04-01T05:55:41;2.90;;;1.73;;
3949;SDS011;53057;50.988;6.314;2023-04-01T05:58:07;2.40;;;1.30;;
3949;SDS011;53057;50.988;6.314;2023-04-01T06:00:36;2.60;;;1.40;;
3949;SDS011;53057;50.988;6.314;2023-04-01T06:03:02;1.40;;;1.30;;
3949;SDS011;53057;50.988;6.314;2023-04-01T06:05:38;1.97;;;1.87;;
3949;SDS011;53057;50.988;6.314;2023-04-01T06:08:08;1.40;;;1.27;;
3949;SDS011;53057;50.988;6.314;2023-04-01T06:16:04;2.97;;;2.67;;
3949;SDS011;53057;50.988;6.314;2023-04-01T06:26:30;5.67;;;2.70;;
3949;SDS011;53057;50.988;6.314;2023-04-01T06:39:29;7.13;;;3.77;;
3949;SDS011;53057;50.988;6.314;2023-04-01T06:42:18;7.13;;;4.07;;
3949;SDS011;53057;50.988;6.314;2023-04-01T06:48:10;4.13;;;2.70;;
3949;SDS011;53057;50.988;6.314;2023-04-01T06:53:49;2.93;;;2.63;;
3949;SDS011;53057;50.988;6.314;2023-04-01T06:56:39;2.37;;;1.63;;
3949;SDS011;53057;50.988;6.314;2023-04-01T06:59:22;7.50;;;2.80;;
3949;SDS011;53057;50.988;6.314;2023-04-01T07:09:40;2.50;;;2.30;;
3949;SDS011;53057;50.988;6.314;2023-04-01T07:15:19;3.70;;;2.77;;
3949;SDS011;53057;50.988;6.314;2023-04-01T07:17:48;2.60;;;2.10;;
3949;SDS011;53057;50.988;6.314;2023-04-01T07:20:20;4.93;;;3.13;;
3949;SDS011;53057;50.988;6.314;2023-04-01T07:22:49;4.67;;;3.37;;
3949;SDS011;53057;50.988;6.314;2023-04-01T07:25:47;6.97;;;2.50;;
3949;SDS011;53057;50.988;6.314;2023-04-01T07:28:32;3.80;;;3.33;;
3949;SDS011;53057;50.988;6.314;2023-04-01T07:36:25;1.63;;;1.53;;
3949;SDS011;53057;50.988;6.314;2023-04-01T07:39:04;2.50;;;2.10;;
3949;SDS011;53057;50.988;6.314;2023-04-01T07:42:00;5.93;;;2.50;;
3949;SDS011;53057;50.988;6.314;2023-04-01T07:44:44;2.73;;;2.53;;
3949;SDS011;53057;50.988;6.314;2023-04-01T07:49:52;1.87;;;1.77;;
3949;SDS011;53057;50.988;6.314;2023-04-01T07:55:43;2.03;;;1.53;;
3949;SDS011;53057;50.988;6.314;2023-04-01T07:58:14;1.53;;;1.43;;
3949;SDS011;53057;50.988;6.314;2023-04-01T08:03:40;3.50;;;1.87;;
3949;SDS011;53057;50.988;6.314;2023-04-01T08:06:24;2.73;;;1.93;;
3949;SDS011;53057;50.988;6.314;2023-04-01T08:09:03;1.93;;;1.50;;
3949;SDS011;53057;50.988;6.314;2023-04-01T08:12:10;2.10;;;2.00;;
3949;SDS011;53057;50.988;6.314;2023-04-01T08:20:39;2.10;;;1.83;;
3949;SDS011;53057;50.988;6.314;2023-04-01T08:25:43;1.83;;;1.73;;
3949;SDS011;53057;50.988;6.314;2023-04-01T08:28:16;1.97;;;1.77;;
3949;SDS011;53057;50.988;6.314;2023-04-01T08:30:55;1.53;;;1.43;;
3949;SDS011;53057;50.988;6.314;2023-04-01T08:33:27;2.80;;;1.40;;
3949;SDS011;53057;50.988;6.314;2023-04-01T08:36:08;1.77;;;1.30;;
3949;SDS011;53057;50.988;6.314;2023-04-01T08:38:39;1.57;;;1.37;;
3949;SDS011;53057;50.988;6.314;2023-04-01T08:41:10;1.73;;;1.63;;
3949;SDS011;53057;50.988;6.314;2023-04-01T08:44:51;3.30;;;1.57;;
3949;SDS011;53057;50.988;6.314;2023-04-01T08:47:05;3.47;;;1.77;;
3949;SDS011;53057;50.988;6.314;2023-04-01T08:52:28;3.00;;;2.80;;
3949;SDS011;53057;50.988;6.314;2023-04-01T08:55:15;1.87;;;1.77;;
3949;SDS011;53057;50.988;6.314;2023-04-01T08:58:19;1.83;;;1.73;;
3949;SDS011;53057;50.988;6.314;2023-04-01T09:01:14;1.60;;;1.50;;
3949;SDS011;53057;50.988;6.314;2023-04-01T09:24:40;2.07;;;1.90;;
3949;SDS011;53057;50.988;6.314;2023-04-01T09:40:51;3.00;;;2.10;;
3949;SDS011;53057;50.988;6.314;2023-04-01T09:56:38;3.90;;;3.60;;
3949;SDS011;53057;50.988;6.314;2023-04-01T10:21:04;4.27;;;3.87;;
3949;SDS011;53057;50.988;6.314;2023-04-01T10:29:52;4.37;;;3.57;;
3949;SDS011;53057;50.988;6.314;2023-04-01T10:48:22;3.93;;;2.87;;
3949;SDS011;53057;50.988;6.314;2023-04-01T10:53:44;3.67;;;3.37;;
3949;SDS011;53057;50.988;6.314;2023-04-01T10:56:34;3.87;;;3.60;;
3949;SDS011;53057;50.988;6.314;2023-04-01T10:59:28;3.30;;;3.00;;
3949;SDS011;53057;50.988;6.314;2023-04-01T11:22:51;3.10;;;2.90;;
3949;SDS011;53057;50.988;6.314;2023-04-01T11:25:05;5.83;;;5.33;;
3949;SDS011;53057;50.988;6.314;2023-04-01T11:30:28;4.20;;;3.90;;
3949;SDS011;53057;50.988;6.314;2023-04-01T11:33:04;3.40;;;3.20;;
3949;SDS011;53057;50.988;6.314;2023-04-01T11:40:58;4.60;;;4.07;;
3949;SDS011;53057;50.988;6.314;2023-04-01T11:44:10;6.37;;;5.70;;
3949;SDS011;53057;50.988;6.314;2023-04-01T11:52:21;7.20;;;6.47;;
3949;SDS011;53057;50.988;6.314;2023-04-01T12:04:58;2.87;;;2.67;;
3949;SDS011;53057;50.988;6.314;2023-04-01T12:07:29;4.33;;;3.93;;
3949;SDS011;53057;50.988;6.314;2023-04-01T12:10:03;4.13;;;3.83;;
3949;SDS011;53057;50.988;6.314;2023-04-01T12:15:44;4.17;;;3.87;;
3949;SDS011;53057;50.988;6.314;2023-04-01T12:20:48;3.50;;;3.20;;
3949;SDS011;53057;50.988;6.314;2023-04-01T12:26:06;3.50;;;3.20;;
3949;SDS011;53057;50.988;6.314;2023-04-01T12:44:51;3.70;;;3.50;;
3949;SDS011;53057;50.988;6.314;2023-04-01T12:50:23;4.20;;;3.90;;
3949;SDS011;53057;50.988;6.314;2023-04-01T12:55:39;4.13;;;2.70;;
3949;SDS011;53057;50.988;6.314;2023-04-01T13:03:19;3.23;;;3.03;;
3949;SDS011;53057;50.988;6.314;2023-04-01T13:16:31;4.80;;;4.33;;
3949;SDS011;53057;50.988;6.314;2023-04-01T13:24:09;7.93;;;6.20;;
3949;SDS011;53057;50.988;6.314;2023-04-01T13:29:28;5.93;;;5.40;;
3949;SDS011;53057;50.988;6.314;2023-04-01T13:42:53;7.43;;;6.40;;
3949;SDS011;53057;50.988;6.314;2023-04-01T13:45:24;7.67;;;6.97;;
3949;SDS011;53057;50.988;6.314;2023-04-01T13:56:15;6.80;;;6.20;;
3949;SDS011;53057;50.988;6.314;2023-04-01T14:01:31;7.90;;;6.87;;
3949;SDS011;53057;50.988;6.314;2023-04-01T14:09:40;6.13;;;5.57;;
3949;SDS011;53057;50.988;6.314;2023-04-01T14:12:13;11.67;;;7.60;;
3949;SDS011;53057;50.988;6.314;2023-04-01T14:14:47;7.77;;;7.07;;
3949;SDS011;53057;50.988;6.314;2023-04-01T14:17:24;13.07;;;8.00;;
3949;SDS011;53057;50.988;6.314;2023-04-01T14:22:33;9.17;;;8.10;;
3949;SDS011;53057;50.988;6.314;2023-04-01T14:27:52;6.90;;;6.20;;
3949;SDS011;53057;50.988;6.314;2023-04-01T14:30:32;6.53;;;5.77;;
3949;SDS011;53057;50.988;6.314;2023-04-01T14:33:46;9.23;;;7.57;;
3949;SDS011;53057;50.988;6.314;2023-04-01T14:51:46;12.03;;;9.07;;
3949;SDS011;53057;50.988;6.314;2023-04-01T14:54:15;9.13;;;7.73;;
3949;SDS011;53057;50.988;6.314;2023-04-01T14:56:50;10.20;;;8.50;;
3949;SDS011;53057;50.988;6.314;2023-04-01T15:04:25;8.33;;;7.50;;
3949;SDS011;53057;50.988;6.314;2023-04-01T15:07:00;9.47;;;6.40;;
3949;SDS011;53057;50.988;6.314;2023-04-01T15:12:02;6.30;;;5.70;;
3949;SDS011;53057;50.988;6.314;2023-04-01T15:19:51;7.07;;;6.47;;
3949;SDS011;53057;50.988;6.314;2023-04-01T15:40:47;9.17;;;6.47;;
3949;SDS011;53057;50.988;6.314;2023-04-01T15:51:44;7.70;;;5.73;;
3949;SDS011;53057;50.988;6.314;2023-04-01T15:54:27;6.33;;;5.73;;
3949;SDS011;53057;50.988;6.314;2023-04-01T15:59:37;7.47;;;6.17;;
3949;SDS011;53057;50.988;6.314;2023-04-01T16:04:47;7.67;;;6.87;;
3949;SDS011;53057;50.988;6.314;2023-04-01T16:09:56;8.13;;;7.33;;
3949;SDS011;53057;50.988;6.314;2023-04-01T16:14:58;14.43;;;6.67;;
3949;SDS011;53057;50.988;6.314;2023-04-01T16:17:31;6.60;;;5.97;;
3949;SDS011;53057;50.988;6.314;2023-04-01T16:25:17;5.77;;;5.13;;
3949;SDS011;53057;50.988;6.314;2023-04-01T16:30:41;5.07;;;4.67;;
3949;SDS011;53057;50.988;6.314;2023-04-01T16:33:15;7.20;;;6.40;;
3949;SDS011;53057;50.988;6.314;2023-04-01T16:35:49;4.67;;;4.37;;
3949;SDS011;53057;50.988;6.314;2023-04-01T16:41:07;7.67;;;6.70;;
3949;SDS011;53057;50.988;6.314;2023-04-01T16:43:44;8.77;;;4.73;;
3949;SDS011;53057;50.988;6.314;2023-04-01T17:00:15;10.40;;;7.93;;
3949;SDS011;53057;50.988;6.314;2023-04-01T17:02:43;10.77;;;9.20;;
3949;SDS011;53057;50.988;6.314;2023-04-01T17:05:13;11.17;;;8.40;;
3949;SDS011;53057;50.988;6.314;2023-04-01T17:10:28;11.10;;;9.37;;
3949;SDS011;53057;50.988;6.314;2023-04-01T17:13:17;11.00;;;8.00;;
3949;SDS011;53057;50.988;6.314;2023-04-01T17:21:10;16.47;;;10.13;;
3949;SDS011;53057;50.988;6.314;2023-04-01T17:28:44;9.90;;;7.63;;
3949;SDS011;53057;50.988;6.314;2023-04-01T17:39:09;16.67;;;10.53;;
3949;SDS011;53057;50.988;6.314;2023-04-01T17:58:09;9.80;;;8.80;;
3949;SDS011;53057;50.988;6.314;2023-04-01T18:00:47;9.00;;;7.83;;
3949;SDS011;53057;50.988;6.314;2023-04-01T18:03:30;9.07;;;8.20;;
3949;SDS011;53057;50.988;6.314;2023-04-01T18:06:04;8.23;;;6.17;;
3949;SDS011;53057;50.988;6.314;2023-04-01T18:26:39;7.13;;;5.60;;
3949;SDS011;53057;50.988;6.314;2023-04-01T18:38:39;6.30;;;5.70;;
3949;SDS011;53057;50.988;6.314;2023-04-01T18:54:05;6.83;;;6.13;;
3949;SDS011;53057;50.988;6.314;2023-04-01T18:56:35;6.53;;;5.60;;
3949;SDS011;53057;50.988;6.314;2023-04-01T18:59:32;10.70;;;6.93;;
3949;SDS011;53057;50.988;6.314;2023-04-01T19:02:31;13.40;;;6.53;;
3949;SDS011;53057;50.988;6.314;2023-04-01T19:05:38;7.20;;;6.50;;
3949;SDS011;53057;50.988;6.314;2023-04-01T19:08:22;10.43;;;8.57;;
3949;SDS011;53057;50.988;6.314;2023-04-01T19:11:35;17.80;;;9.00;;
3949;SDS011;53057;50.988;6.314;2023-04-01T19:13:45;15.13;;;9.63;;
3949;SDS011;53057;50.988;6.314;2023-04-01T19:16:37;13.60;;;10.67;;
3949;SDS011;53057;50.988;6.314;2023-04-01T19:21:54;22.70;;;13.57;;
3949;SDS011;53057;50.988;6.314;2023-04-01T19:24:25;11.70;;;10.20;;
3949;SDS011;53057;50.988;6.314;2023-04-01T19:27:08;18.60;;;12.20;;
3949;SDS011;53057;50.988;6.314;2023-04-01T19:45:38;11.57;;;9.30;;
3949;SDS011;53057;50.988;6.314;2023-04-01T19:50:38;11.40;;;9.33;;
3949;SDS011;53057;50.988;6.314;2023-04-01T19:53:20;15.10;;;9.70;;
3949;SDS011;53057;50.988;6.314;2023-04-01T19:55:52;12.20;;;8.30;;
3949;SDS011;53057;50.988;6.314;2023-04-01T20:01:13;11.13;;;8.03;;
3949;SDS011;53057;50.988;6.314;2023-04-01T20:03:46;10.07;;;7.43;;
3949;SDS011;53057;50.988;6.314;2023-04-01T20:08:51;13.53;;;9.07;;
3949;SDS011;53057;50.988;6.314;2023-04-01T20:11:38;13.47;;;9.00;;
3949;SDS011;53057;50.988;6.314;2023-04-01T20:17:00;11.63;;;8.50;;
3949;SDS011;53057;50.988;6.314;2023-04-01T20:24:49;16.60;;;10.10;;
3949;SDS011;53057;50.988;6.314;2023-04-01T20:27:23;12.23;;;8.60;;
3949;SDS011;53057;50.988;6.314;2023-04-01T20:29:56;11.60;;;9.00;;
3949;SDS011;53057;50.988;6.314;2023-04-01T20:37:38;16.73;;;9.83;;
3949;SDS011;53057;50.988;6.314;2023-04-01T20:43:10;12.73;;;10.33;;
3949;SDS011;53057;50.988;6.314;2023-04-01T20:45:56;19.60;;;12.90;;
3949;SDS011;53057;50.988;6.314;2023-04-01T20:49:10;21.87;;;11.83;;
3949;SDS011;53057;50.988;6.314;2023-04-01T20:53:43;24.80;;;15.23;;
3949;SDS011;53057;50.988;6.314;2023-04-01T20:58:53;25.20;;;15.57;;
3949;SDS011;53057;50.988;6.314;2023-04-01T21:07:05;26.47;;;14.90;;
3949;SDS011;53057;50.988;6.314;2023-04-01T21:15:34;25.40;;;16.27;;
3949;SDS011;53057;50.988;6.314;2023-04-01T21:18:19;39.80;;;19.10;;
3949;SDS011;53057;50.988;6.314;2023-04-01T21:26:02;24.23;;;16.00;;
3949;SDS011;53057;50.988;6.314;2023-04-01T21:28:46;28.73;;;19.20;;
3949;SDS011;53057;50.988;6.314;2023-04-01T21:41:34;25.03;;;17.20;;
3949;SDS011;53057;50.988;6.314;2023-04-01T21:44:15;28.97;;;17.13;;
3949;SDS011;53057;50.988;6.314;2023-04-01T21:49:36;30.40;;;18.70;;
3949;SDS011;53057;50.988;6.314;2023-04-01T21:52:15;23.87;;;17.10;;
3949;SDS011;53057;50.988;6.314;2023-04-01T22:07:57;20.80;;;14.30;;
3949;SDS011;53057;50.988;6.314;2023-04-01T22:18:13;35.80;;;20.63;;
3949;SDS011;53057;50.988;6.314;2023-04-01T22:23:22;29.53;;;18.37;;
3949;SDS011;53057;50.988;6.314;2023-04-01T22:25:55;29.97;;;19.77;;
3949;SDS011;53057;50.988;6.314;2023-04-01T22:28:29;36.40;;;21.70;;
3949;SDS011;53057;50.988;6.314;2023-04-01T22:31:02;34.20;;;21.37;;
3949;SDS011;53057;50.988;6.314;2023-04-01T22:33:48;26.33;;;17.03;;
3949;SDS011;53057;50.988;6.314;2023-04-01T22:36:26;22.20;;;15.87;;
3949;SDS011;53057;50.988;6.314;2023-04-01T22:43:59;30.80;;;18.77;;
3949;SDS011;53057;50.988;6.314;2023-04-01T22:49:20;29.83;;;19.20;;
3949;SDS011;53057;50.988;6.314;2023-04-01T22:54:29;29.13;;;20.40;;
3949;SDS011;53057;50.988;6.314;2023-04-01T22:57:05;21.00;;;15.00;;
3949;SDS011;53057;50.988;6.314;2023-04-01T22:59:37;21.30;;;14.50;;
3949;SDS011;53057;50.988;6.314;2023-04-01T23:04:55;16.33;;;12.27;;
3949;SDS011;53057;50.988;6.314;2023-04-01T23:10:23;19.00;;;12.53;;
3949;SDS011;53057;50.988;6.314;2023-04-01T23:12:51;15.70;;;10.20;;
3949;SDS011;53057;50.988;6.314;2023-04-01T23:15:20;14.27;;;9.57;;
3949;SDS011;53057;50.988;6.314;2023-04-01T23:17:51;12.33;;;9.67;;
3949;SDS011;53057;50.988;6.314;2023-04-01T23:20:23;20.80;;;11.30;;
3949;SDS011;53057;50.988;6.314;2023-04-01T23:23:17;17.47;;;11.87;;
3949;SDS011;53057;50.988;6.314;2023-04-01T23:25:49;21.50;;;11.20;;
3949;SDS011;53057;50.988;6.314;2023-04-01T23:28:40;20.37;;;13.43;;
3949;SDS011;53057;50.988;6.314;2023-04-01T23:36:43;15.60;;;11.00;;
3949;SDS011;53057;50.988;6.314;2023-04-01T23:39:54;18.63;;;13.17;;
3949;SDS011;53057;50.988;6.314;2023-04-01T23:42:03;14.97;;;10.20;;
3949;SDS011;53057;50.988;6.314;2023-04-01T23:44:32;14.17;;;9.37;;
3949;SDS011;53057;50.988;6.314;2023-04-01T23:47:03;13.70;;;10.50;;
3949;SDS011;53057;50.988;6.314;2023-04-01T23:49:34;17.43;;;11.50;;
3949;SDS011;53057;50.988;6.314;2023-04-01T23:52:08;17.10;;;11.47;;
3949;SDS011;53057;50.988;6.314;2023-04-01T23:54:51;24.77;;;14.77;;
3949;SDS011;53057;50.988;6.314;2023-04-01T23:57:22;25.30;;;17.83;;
